createdAt,value
2018-07-17T08:49:25.105Z,66.40
2018-07-17T08:51:53.326Z,62.20
2018-07-17T08:54:21.576Z,66.40
2018-07-17T08:56:49.805Z,63.60
2018-07-17T08:59:18.041Z,64.60
2018-07-17T09:01:46.278Z,62.40
2018-07-17T09:04:14.525Z,65.40
2018-07-17T09:06:42.764Z,65.60
2018-07-17T09:09:11.009Z,69.00
2018-07-17T09:11:39.234Z,69.90
2018-07-17T09:14:07.510Z,68.80
2018-07-17T09:16:35.740Z,65.30
2018-07-17T09:19:03.998Z,64.20
2018-07-17T09:21:32.274Z,62.70
2018-07-17T09:24:05.949Z,60.20
2018-07-17T09:26:34.182Z,59.20
2018-07-17T09:29:02.429Z,60.00
2018-07-17T09:31:30.658Z,60.50
2018-07-17T09:33:58.897Z,59.40
2018-07-17T09:36:27.121Z,59.50
2018-07-17T09:38:55.388Z,62.40
2018-07-17T09:41:23.622Z,58.90
2018-07-17T09:43:51.866Z,61.50
2018-07-17T09:46:20.099Z,60.00
2018-07-17T09:48:48.337Z,61.10
2018-07-17T09:51:16.562Z,57.60
2018-07-17T09:53:44.785Z,59.50
2018-07-17T09:56:13.029Z,57.70
2018-07-17T09:58:41.254Z,59.10
2018-07-17T10:01:15.018Z,58.00
2018-07-17T10:03:43.234Z,58.30
2018-07-17T10:06:11.536Z,59.90
2018-07-17T10:08:39.766Z,58.10
2018-07-17T10:11:08.009Z,56.70
2018-07-17T10:13:36.249Z,59.20
2018-07-17T10:16:04.595Z,55.10
2018-07-17T10:18:32.814Z,54.50
2018-07-17T10:21:01.063Z,58.50
2018-07-17T10:23:29.285Z,60.60
2018-07-17T10:25:57.527Z,54.50
2018-07-17T10:28:25.749Z,56.80
2018-07-17T10:30:53.984Z,56.20
2018-07-17T10:33:22.204Z,51.50
2018-07-17T10:35:50.443Z,56.40
2018-07-17T10:38:18.738Z,55.80
2018-07-17T10:40:46.987Z,52.00
2018-07-17T10:43:15.216Z,53.70
2018-07-17T10:45:43.465Z,53.70
2018-07-17T10:48:11.726Z,53.70
2018-07-17T10:50:39.987Z,56.40
2018-07-17T10:53:10.655Z,55.60
2018-07-17T10:55:38.947Z,58.80
2018-07-17T10:58:07.167Z,58.10
2018-07-17T11:00:35.397Z,56.50
2018-07-17T11:03:03.638Z,55.80
2018-07-17T11:05:31.861Z,58.40
2018-07-17T11:08:00.098Z,55.80
2018-07-17T11:10:28.370Z,57.70
2018-07-17T11:12:56.608Z,57.30
2018-07-17T11:15:24.854Z,55.50
2018-07-17T11:17:53.174Z,55.60
2018-07-17T11:22:49.406Z,55.50
2018-07-17T11:25:17.633Z,54.20
2018-07-17T11:27:45.889Z,54.90
2018-07-17T11:30:14.114Z,56.50
2018-07-17T11:32:42.355Z,53.20
2018-07-17T11:35:10.610Z,50.50
2018-07-17T11:37:38.859Z,54.30
2018-07-17T11:40:07.076Z,52.60
2018-07-17T11:42:35.347Z,51.50
2018-07-17T11:45:03.593Z,55.90
2018-07-17T11:47:31.842Z,56.70
2018-07-17T11:50:00.089Z,55.50
2018-07-17T11:52:28.318Z,56.40
2018-07-17T11:54:56.568Z,54.10
2018-07-17T11:57:24.797Z,54.60
2018-07-17T11:59:53.037Z,55.90
2018-07-17T12:02:21.255Z,55.60
2018-07-17T12:04:49.492Z,56.00
2018-07-17T12:07:17.732Z,57.40
2018-07-17T12:09:45.988Z,57.30
2018-07-17T12:12:14.213Z,59.60
2018-07-17T12:14:42.483Z,62.60
2018-07-17T12:17:10.729Z,58.00
2018-07-17T12:19:38.994Z,58.30
2018-07-17T12:22:07.218Z,59.30
2018-07-17T12:24:35.473Z,61.30
2018-07-17T12:27:03.749Z,60.30
2018-07-17T12:29:31.994Z,59.10
2018-07-17T12:32:00.218Z,61.60
2018-07-17T12:34:28.477Z,58.30
2018-07-17T12:36:56.717Z,58.60
2018-07-17T12:39:24.963Z,60.90
2018-07-17T12:41:53.182Z,59.70
2018-07-17T12:44:21.441Z,59.10
2018-07-17T12:46:49.678Z,59.30
2018-07-17T12:49:17.932Z,60.50
2018-07-17T12:51:46.161Z,59.80
2018-07-17T12:54:14.382Z,60.50
2018-07-17T12:56:42.621Z,58.00
2018-07-17T12:59:10.841Z,59.30
2018-07-17T13:01:39.089Z,56.80
2018-07-17T13:04:07.353Z,58.50
2018-07-17T13:06:35.598Z,59.80
2018-07-17T13:09:04.405Z,60.20
2018-07-17T13:11:32.658Z,61.90
2018-07-17T13:14:00.936Z,60.00
2018-07-17T13:16:29.183Z,63.30
2018-07-17T13:18:57.417Z,60.80
2018-07-17T13:21:25.682Z,60.70
2018-07-17T13:23:54.018Z,59.30
2018-07-17T13:26:22.257Z,60.10
2018-07-17T13:28:50.485Z,62.10
2018-07-17T13:31:18.732Z,62.90
2018-07-17T13:33:46.956Z,60.10
2018-07-17T13:36:15.341Z,61.70
2018-07-17T13:38:43.561Z,61.50
2018-07-17T13:41:11.824Z,60.50
2018-07-17T13:43:40.077Z,61.20
2018-07-17T13:46:08.346Z,62.60
2018-07-17T13:48:36.598Z,63.50
2018-07-17T13:51:04.838Z,60.80
2018-07-17T13:53:33.080Z,60.80
2018-07-17T13:56:01.370Z,60.50
2018-07-17T13:58:29.573Z,59.80
2018-07-17T14:00:57.805Z,60.40
2018-07-17T14:03:26.040Z,61.70
2018-07-17T14:05:54.286Z,61.60
2018-07-17T14:08:22.537Z,64.60
2018-07-17T14:10:50.781Z,64.70
2018-07-17T14:13:19.025Z,63.70
2018-07-17T14:15:47.274Z,66.70
2018-07-17T14:18:15.525Z,64.10
2018-07-17T14:20:43.757Z,64.00
2018-07-17T14:23:12.025Z,64.60
2018-07-17T14:25:40.254Z,64.50
2018-07-17T14:28:08.529Z,67.70
2018-07-17T14:30:36.762Z,66.40
2018-07-17T14:33:05.020Z,65.60
2018-07-17T14:35:33.241Z,66.30
2018-07-17T14:38:01.506Z,67.00
2018-07-17T14:40:29.785Z,67.10
2018-07-17T14:42:58.027Z,67.90
2018-07-17T14:45:26.269Z,69.10
2018-07-17T14:47:54.491Z,68.50
2018-07-17T14:50:22.738Z,70.20
2018-07-17T14:52:50.962Z,69.40
2018-07-17T14:55:19.206Z,69.10
2018-07-17T14:57:48.229Z,71.40
2018-07-17T15:00:16.501Z,69.00
2018-07-17T15:02:44.729Z,68.40
2018-07-17T15:05:12.973Z,67.30
2018-07-17T15:07:41.201Z,68.10
2018-07-17T15:10:09.819Z,69.30
2018-07-17T15:12:38.055Z,68.40
2018-07-17T15:15:06.542Z,69.30
2018-07-17T15:17:34.764Z,68.70
2018-07-17T15:20:03.059Z,72.50
2018-07-17T15:22:31.350Z,71.60
2018-07-17T15:24:59.556Z,72.20
2018-07-17T15:27:27.777Z,72.60
2018-07-17T15:29:56.021Z,72.50
2018-07-17T15:32:24.259Z,72.40
2018-07-17T15:34:52.485Z,72.80
2018-07-17T15:37:20.781Z,74.50
2018-07-17T15:39:49.017Z,75.30
2018-07-17T15:42:17.272Z,76.60
2018-07-17T15:44:45.529Z,76.50
2018-07-17T15:47:13.789Z,76.00
2018-07-17T15:49:42.029Z,76.40
2018-07-17T15:52:10.333Z,76.50
2018-07-17T15:54:38.553Z,77.50
2018-07-17T15:57:06.863Z,77.00
2018-07-17T15:59:35.105Z,74.80
2018-07-17T16:02:03.358Z,74.80
2018-07-17T16:04:31.598Z,74.00
2018-07-17T16:07:00.065Z,75.40
2018-07-17T16:09:28.293Z,74.70
2018-07-17T16:11:56.538Z,75.90
2018-07-17T16:14:25.138Z,75.70
2018-07-17T16:16:53.061Z,77.40
2018-07-17T16:19:21.290Z,76.60
2018-07-17T16:21:49.521Z,77.70
2018-07-17T16:24:17.770Z,77.50
2018-07-17T16:26:45.994Z,77.30
2018-07-17T16:29:14.237Z,78.30
2018-07-17T16:31:42.457Z,78.00
2018-07-17T16:34:10.688Z,79.30
2018-07-17T16:36:38.940Z,79.80
2018-07-17T16:39:07.750Z,80.40
2018-07-17T16:41:35.973Z,81.00
2018-07-17T16:44:04.236Z,81.20
2018-07-17T16:46:32.462Z,81.50
2018-07-17T16:49:00.699Z,81.80
2018-07-17T16:51:28.924Z,82.00
2018-07-17T16:53:57.650Z,83.30
2018-07-17T16:56:25.985Z,83.60
2018-07-17T16:58:54.228Z,83.20
2018-07-17T17:01:22.860Z,83.60
2018-07-17T17:03:51.026Z,84.10
2018-07-17T17:06:19.252Z,84.80
2018-07-17T17:08:47.500Z,84.90
2018-07-17T17:11:15.925Z,85.70
2018-07-17T17:13:44.181Z,87.30
2018-07-17T17:16:12.418Z,88.30
2018-07-17T17:18:40.677Z,88.30
2018-07-17T17:21:08.907Z,89.80
2018-07-17T17:23:37.146Z,90.10
2018-07-17T17:26:05.394Z,91.30
2018-07-17T17:28:33.623Z,91.40
2018-07-17T17:31:01.864Z,90.20
2018-07-17T17:33:30.086Z,91.20
2018-07-17T17:35:58.323Z,90.30
2018-07-17T17:38:26.618Z,91.20
2018-07-17T17:40:54.839Z,91.00
2018-07-17T17:43:23.071Z,92.30
2018-07-17T17:45:51.318Z,92.60
2018-07-17T17:48:19.542Z,91.90
2018-07-17T17:50:47.789Z,92.30
2018-07-17T17:53:16.017Z,92.40
2018-07-17T17:55:44.260Z,92.30
2018-07-17T17:58:12.485Z,92.90
2018-07-17T18:00:40.724Z,94.00
2018-07-17T18:03:08.981Z,92.90
2018-07-17T18:05:37.226Z,93.50
2018-07-17T18:08:05.525Z,93.80
2018-07-17T18:10:33.768Z,93.70
2018-07-17T18:13:02.027Z,95.00
2018-07-17T18:15:30.304Z,95.20
2018-07-17T18:17:58.542Z,94.90
2018-07-17T18:20:26.798Z,95.40
2018-07-17T18:22:55.048Z,95.20
2018-07-17T18:25:23.269Z,95.50
2018-07-17T18:27:51.510Z,95.30
2018-07-17T18:30:19.742Z,96.00
2018-07-17T18:32:47.986Z,95.80
2018-07-17T18:35:16.217Z,95.80
2018-07-17T18:37:44.461Z,95.30
2018-07-17T18:40:12.833Z,95.80
2018-07-17T18:42:41.088Z,96.30
2018-07-17T18:45:09.322Z,97.20
2018-07-17T18:47:37.651Z,96.50
2018-07-17T18:50:12.864Z,96.70
2018-07-17T18:52:34.169Z,96.80
2018-07-17T18:55:02.418Z,96.70
2018-07-17T18:57:30.647Z,97.20
2018-07-17T18:59:58.894Z,96.90
2018-07-17T19:02:33.966Z,97.50
2018-07-17T19:05:02.231Z,97.60
2018-07-17T19:07:30.454Z,97.40
2018-07-17T19:09:58.685Z,97.10
2018-07-17T19:12:27.064Z,96.60
2018-07-17T19:14:55.182Z,96.70
2018-07-17T19:17:23.408Z,97.00
2018-07-17T19:19:51.661Z,97.30
2018-07-17T19:22:19.893Z,97.40
2018-07-17T19:24:48.170Z,97.90
2018-07-17T19:27:16.394Z,98.00
2018-07-17T19:29:44.683Z,97.40
2018-07-17T19:32:12.948Z,98.30
2018-07-17T19:34:41.196Z,98.20
2018-07-17T19:37:09.434Z,99.00
2018-07-17T19:39:37.681Z,99.20
2018-07-17T19:42:05.937Z,99.40
2018-07-17T19:44:34.177Z,99.70
2018-07-17T19:47:02.410Z,99.60
2018-07-17T19:49:30.657Z,99.90
